sensor_id;sensor_type;location;lat;lon;timestamp;P1;durP1;ratioP1;P2;durP2;ratioP2
10605;SDS011;5350;42.698;23.148;2023-07-31T00:01:05;4.13;;;3.83;;
10605;SDS011;5350;42.698;23.148;2023-07-31T00:03:32;3.83;;;3.40;;
10605;SDS011;5350;42.698;23.148;2023-07-31T00:05:59;4.00;;;3.60;;
10605;SDS011;5350;42.698;23.148;2023-07-31T00:08:27;4.63;;;4.25;;
10605;SDS011;5350;42.698;23.148;2023-07-31T00:10:53;4.85;;;4.47;;
10605;SDS011;5350;42.698;23.148;2023-07-31T00:13:20;4.38;;;4.07;;
10605;SDS011;5350;42.698;23.148;2023-07-31T00:15:47;5.43;;;4.90;;
10605;SDS011;5350;42.698;23.148;2023-07-31T00:18:13;5.45;;;4.88;;
10605;SDS011;5350;42.698;23.148;2023-07-31T00:20:40;4.28;;;3.97;;
10605;SDS011;5350;42.698;23.148;2023-07-31T00:23:07;5.18;;;4.72;;
10605;SDS011;5350;42.698;23.148;2023-07-31T00:25:35;5.18;;;4.78;;
10605;SDS011;5350;42.698;23.148;2023-07-31T00:28:02;5.68;;;5.25;;
10605;SDS011;5350;42.698;23.148;2023-07-31T00:30:28;5.97;;;5.47;;
10605;SDS011;5350;42.698;23.148;2023-07-31T00:32:55;7.70;;;5.75;;
10605;SDS011;5350;42.698;23.148;2023-07-31T00:35:22;7.18;;;6.57;;
10605;SDS011;5350;42.698;23.148;2023-07-31T00:37:48;7.85;;;7.03;;
10605;SDS011;5350;42.698;23.148;2023-07-31T00:40:15;7.03;;;6.47;;
10605;SDS011;5350;42.698;23.148;2023-07-31T00:42:43;7.93;;;7.22;;
10605;SDS011;5350;42.698;23.148;2023-07-31T00:45:10;7.70;;;7.10;;
10605;SDS011;5350;42.698;23.148;2023-07-31T00:47:37;7.93;;;7.32;;
10605;SDS011;5350;42.698;23.148;2023-07-31T00:50:04;7.22;;;6.72;;
10605;SDS011;5350;42.698;23.148;2023-07-31T00:52:33;8.32;;;7.63;;
10605;SDS011;5350;42.698;23.148;2023-07-31T00:55:02;7.80;;;7.20;;
10605;SDS011;5350;42.698;23.148;2023-07-31T00:57:29;8.48;;;7.68;;
10605;SDS011;5350;42.698;23.148;2023-07-31T00:59:59;9.30;;;8.45;;
10605;SDS011;5350;42.698;23.148;2023-07-31T01:02:26;9.73;;;8.93;;
10605;SDS011;5350;42.698;23.148;2023-07-31T01:04:53;10.85;;;9.95;;
10605;SDS011;5350;42.698;23.148;2023-07-31T01:07:21;14.02;;;12.73;;
10605;SDS011;5350;42.698;23.148;2023-07-31T01:09:56;15.10;;;13.65;;
10605;SDS011;5350;42.698;23.148;2023-07-31T01:12:28;16.08;;;14.57;;
10605;SDS011;5350;42.698;23.148;2023-07-31T01:15:05;17.73;;;15.80;;
10605;SDS011;5350;42.698;23.148;2023-07-31T01:17:36;18.05;;;16.40;;
10605;SDS011;5350;42.698;23.148;2023-07-31T01:20:03;19.00;;;17.20;;
10605;SDS011;5350;42.698;23.148;2023-07-31T01:28:36;19.77;;;17.98;;
10605;SDS011;5350;42.698;23.148;2023-07-31T01:31:11;22.55;;;20.35;;
10605;SDS011;5350;42.698;23.148;2023-07-31T01:33:41;20.63;;;18.70;;
10605;SDS011;5350;42.698;23.148;2023-07-31T01:36:08;22.83;;;20.58;;
10605;SDS011;5350;42.698;23.148;2023-07-31T01:38:36;21.48;;;19.48;;
10605;SDS011;5350;42.698;23.148;2023-07-31T01:41:04;20.23;;;18.25;;
10605;SDS011;5350;42.698;23.148;2023-07-31T01:43:31;21.30;;;19.23;;
10605;SDS011;5350;42.698;23.148;2023-07-31T01:45:58;21.92;;;19.90;;
10605;SDS011;5350;42.698;23.148;2023-07-31T01:48:24;22.30;;;20.15;;
10605;SDS011;5350;42.698;23.148;2023-07-31T01:50:51;22.92;;;20.52;;
10605;SDS011;5350;42.698;23.148;2023-07-31T01:53:18;23.38;;;21.02;;
10605;SDS011;5350;42.698;23.148;2023-07-31T01:55:44;21.25;;;19.17;;
10605;SDS011;5350;42.698;23.148;2023-07-31T01:58:12;19.63;;;17.73;;
10605;SDS011;5350;42.698;23.148;2023-07-31T02:00:39;20.05;;;18.25;;
10605;SDS011;5350;42.698;23.148;2023-07-31T02:03:06;20.05;;;18.17;;
10605;SDS011;5350;42.698;23.148;2023-07-31T02:05:32;21.00;;;19.10;;
10605;SDS011;5350;42.698;23.148;2023-07-31T02:07:59;20.73;;;18.77;;
10605;SDS011;5350;42.698;23.148;2023-07-31T02:10:26;20.35;;;18.55;;
10605;SDS011;5350;42.698;23.148;2023-07-31T02:12:52;19.75;;;18.00;;
10605;SDS011;5350;42.698;23.148;2023-07-31T02:15:21;20.10;;;18.30;;
10605;SDS011;5350;42.698;23.148;2023-07-31T02:17:47;20.27;;;18.38;;
10605;SDS011;5350;42.698;23.148;2023-07-31T02:20:14;20.45;;;18.45;;
10605;SDS011;5350;42.698;23.148;2023-07-31T02:22:41;20.10;;;18.25;;
10605;SDS011;5350;42.698;23.148;2023-07-31T02:25:08;20.95;;;19.05;;
10605;SDS011;5350;42.698;23.148;2023-07-31T02:27:35;21.55;;;19.38;;
10605;SDS011;5350;42.698;23.148;2023-07-31T02:30:02;19.85;;;18.05;;
10605;SDS011;5350;42.698;23.148;2023-07-31T02:32:30;21.13;;;19.17;;
10605;SDS011;5350;42.698;23.148;2023-07-31T02:34:56;21.83;;;19.70;;
10605;SDS011;5350;42.698;23.148;2023-07-31T02:37:23;22.00;;;19.90;;
10605;SDS011;5350;42.698;23.148;2023-07-31T02:39:50;21.25;;;19.33;;
10605;SDS011;5350;42.698;23.148;2023-07-31T02:42:17;21.98;;;19.98;;
10605;SDS011;5350;42.698;23.148;2023-07-31T02:44:43;22.85;;;20.67;;
10605;SDS011;5350;42.698;23.148;2023-07-31T02:47:10;21.13;;;19.02;;
10605;SDS011;5350;42.698;23.148;2023-07-31T02:49:38;21.08;;;19.17;;
10605;SDS011;5350;42.698;23.148;2023-07-31T02:52:05;23.77;;;21.38;;
10605;SDS011;5350;42.698;23.148;2023-07-31T02:54:32;23.25;;;20.95;;
10605;SDS011;5350;42.698;23.148;2023-07-31T02:56:59;20.85;;;18.85;;
10605;SDS011;5350;42.698;23.148;2023-07-31T02:59:27;21.58;;;19.63;;
10605;SDS011;5350;42.698;23.148;2023-07-31T03:01:54;21.77;;;19.85;;
10605;SDS011;5350;42.698;23.148;2023-07-31T03:04:21;22.33;;;20.13;;
10605;SDS011;5350;42.698;23.148;2023-07-31T03:06:49;21.23;;;19.33;;
10605;SDS011;5350;42.698;23.148;2023-07-31T03:09:15;20.67;;;18.73;;
10605;SDS011;5350;42.698;23.148;2023-07-31T03:11:42;21.75;;;19.65;;
10605;SDS011;5350;42.698;23.148;2023-07-31T03:14:09;21.58;;;19.58;;
10605;SDS011;5350;42.698;23.148;2023-07-31T03:16:36;20.80;;;18.88;;
10605;SDS011;5350;42.698;23.148;2023-07-31T03:19:02;22.10;;;19.92;;
10605;SDS011;5350;42.698;23.148;2023-07-31T03:21:29;21.45;;;19.40;;
10605;SDS011;5350;42.698;23.148;2023-07-31T03:23:57;24.30;;;22.08;;
10605;SDS011;5350;42.698;23.148;2023-07-31T03:26:24;23.13;;;20.88;;
10605;SDS011;5350;42.698;23.148;2023-07-31T03:28:50;23.67;;;20.75;;
10605;SDS011;5350;42.698;23.148;2023-07-31T03:31:17;22.00;;;19.92;;
10605;SDS011;5350;42.698;23.148;2023-07-31T03:33:44;22.38;;;20.20;;
10605;SDS011;5350;42.698;23.148;2023-07-31T03:36:10;23.60;;;21.15;;
10605;SDS011;5350;42.698;23.148;2023-07-31T03:38:37;23.73;;;21.33;;
10605;SDS011;5350;42.698;23.148;2023-07-31T03:41:05;23.42;;;21.02;;
10605;SDS011;5350;42.698;23.148;2023-07-31T03:43:32;23.23;;;20.92;;
10605;SDS011;5350;42.698;23.148;2023-07-31T03:45:59;23.52;;;21.23;;
10605;SDS011;5350;42.698;23.148;2023-07-31T03:48:26;23.33;;;21.08;;
10605;SDS011;5350;42.698;23.148;2023-07-31T03:50:52;23.70;;;21.30;;
10605;SDS011;5350;42.698;23.148;2023-07-31T03:53:19;24.77;;;22.27;;
10605;SDS011;5350;42.698;23.148;2023-07-31T03:55:46;25.95;;;23.15;;
10605;SDS011;5350;42.698;23.148;2023-07-31T03:58:14;23.95;;;21.65;;
10605;SDS011;5350;42.698;23.148;2023-07-31T04:00:41;23.83;;;21.42;;
10605;SDS011;5350;42.698;23.148;2023-07-31T04:03:08;25.42;;;22.92;;
10605;SDS011;5350;42.698;23.148;2023-07-31T04:05:37;22.95;;;20.65;;
10605;SDS011;5350;42.698;23.148;2023-07-31T04:08:05;23.73;;;21.30;;
10605;SDS011;5350;42.698;23.148;2023-07-31T04:10:31;23.33;;;21.08;;
10605;SDS011;5350;42.698;23.148;2023-07-31T04:12:58;23.38;;;20.38;;
10605;SDS011;5350;42.698;23.148;2023-07-31T04:15:27;24.00;;;21.70;;
10605;SDS011;5350;42.698;23.148;2023-07-31T04:17:53;23.70;;;21.30;;
10605;SDS011;5350;42.698;23.148;2023-07-31T04:20:20;22.67;;;20.48;;
10605;SDS011;5350;42.698;23.148;2023-07-31T04:22:48;23.95;;;21.65;;
10605;SDS011;5350;42.698;23.148;2023-07-31T04:25:14;24.02;;;21.67;;
10605;SDS011;5350;42.698;23.148;2023-07-31T04:27:41;23.73;;;21.50;;
10605;SDS011;5350;42.698;23.148;2023-07-31T04:30:08;24.52;;;22.10;;
10605;SDS011;5350;42.698;23.148;2023-07-31T04:32:36;24.60;;;22.20;;
10605;SDS011;5350;42.698;23.148;2023-07-31T04:35:03;25.85;;;23.25;;
10605;SDS011;5350;42.698;23.148;2023-07-31T04:37:31;24.58;;;22.27;;
10605;SDS011;5350;42.698;23.148;2023-07-31T04:39:58;23.52;;;21.20;;
10605;SDS011;5350;42.698;23.148;2023-07-31T04:42:24;23.05;;;20.67;;
10605;SDS011;5350;42.698;23.148;2023-07-31T04:44:51;20.50;;;18.70;;
10605;SDS011;5350;42.698;23.148;2023-07-31T04:47:18;21.75;;;19.73;;
10605;SDS011;5350;42.698;23.148;2023-07-31T04:49:47;22.00;;;19.90;;
10605;SDS011;5350;42.698;23.148;2023-07-31T04:52:13;20.25;;;18.35;;
10605;SDS011;5350;42.698;23.148;2023-07-31T04:54:40;18.70;;;17.00;;
10605;SDS011;5350;42.698;23.148;2023-07-31T04:57:07;20.50;;;18.33;;
10605;SDS011;5350;42.698;23.148;2023-07-31T04:59:34;19.52;;;17.80;;
10605;SDS011;5350;42.698;23.148;2023-07-31T05:02:00;16.15;;;14.60;;
10605;SDS011;5350;42.698;23.148;2023-07-31T05:04:27;14.93;;;13.60;;
10605;SDS011;5350;42.698;23.148;2023-07-31T05:06:55;14.45;;;13.18;;
10605;SDS011;5350;42.698;23.148;2023-07-31T05:09:22;15.32;;;14.02;;
10605;SDS011;5350;42.698;23.148;2023-07-31T05:11:49;14.38;;;13.18;;
10605;SDS011;5350;42.698;23.148;2023-07-31T05:14:15;12.90;;;11.70;;
10605;SDS011;5350;42.698;23.148;2023-07-31T05:16:42;13.48;;;12.20;;
10605;SDS011;5350;42.698;23.148;2023-07-31T05:19:09;12.27;;;11.30;;
10605;SDS011;5350;42.698;23.148;2023-07-31T05:21:36;11.93;;;10.85;;
10605;SDS011;5350;42.698;23.148;2023-07-31T05:24:04;11.68;;;10.68;;
10605;SDS011;5350;42.698;23.148;2023-07-31T05:26:31;10.30;;;9.50;;
10605;SDS011;5350;42.698;23.148;2023-07-31T05:28:57;10.40;;;9.50;;
10605;SDS011;5350;42.698;23.148;2023-07-31T05:31:24;9.15;;;8.35;;
10605;SDS011;5350;42.698;23.148;2023-07-31T05:33:51;8.48;;;7.88;;
10605;SDS011;5350;42.698;23.148;2023-07-31T05:36:18;8.70;;;8.00;;
10605;SDS011;5350;42.698;23.148;2023-07-31T05:38:45;7.28;;;6.57;;
10605;SDS011;5350;42.698;23.148;2023-07-31T05:41:13;7.55;;;6.95;;
10605;SDS011;5350;42.698;23.148;2023-07-31T05:43:40;6.50;;;5.90;;
10605;SDS011;5350;42.698;23.148;2023-07-31T05:46:08;6.72;;;6.13;;
10605;SDS011;5350;42.698;23.148;2023-07-31T05:48:35;5.32;;;4.93;;
10605;SDS011;5350;42.698;23.148;2023-07-31T05:51:01;5.90;;;5.40;;
10605;SDS011;5350;42.698;23.148;2023-07-31T05:53:28;6.57;;;5.97;;
10605;SDS011;5350;42.698;23.148;2023-07-31T05:55:55;6.57;;;5.30;;
10605;SDS011;5350;42.698;23.148;2023-07-31T05:58:23;5.20;;;4.80;;
10605;SDS011;5350;42.698;23.148;2023-07-31T06:00:50;5.63;;;5.22;;
10605;SDS011;5350;42.698;23.148;2023-07-31T06:03:16;5.25;;;4.85;;
10605;SDS011;5350;42.698;23.148;2023-07-31T06:05:43;5.32;;;4.93;;
10605;SDS011;5350;42.698;23.148;2023-07-31T06:08:10;5.13;;;4.70;;
10605;SDS011;5350;42.698;23.148;2023-07-31T06:10:37;4.75;;;4.45;;
10605;SDS011;5350;42.698;23.148;2023-07-31T06:13:03;4.53;;;4.03;;
10605;SDS011;5350;42.698;23.148;2023-07-31T06:15:32;5.10;;;4.60;;
10605;SDS011;5350;42.698;23.148;2023-07-31T06:17:58;5.45;;;4.20;;
10605;SDS011;5350;42.698;23.148;2023-07-31T06:20:27;4.65;;;4.13;;
10605;SDS011;5350;42.698;23.148;2023-07-31T06:22:54;3.95;;;3.42;;
10605;SDS011;5350;42.698;23.148;2023-07-31T06:25:20;3.42;;;3.22;;
10605;SDS011;5350;42.698;23.148;2023-07-31T06:27:47;3.70;;;3.40;;
10605;SDS011;5350;42.698;23.148;2023-07-31T06:30:14;3.90;;;3.60;;
10605;SDS011;5350;42.698;23.148;2023-07-31T06:32:42;3.70;;;3.40;;
10605;SDS011;5350;42.698;23.148;2023-07-31T06:35:09;2.53;;;2.33;;
10605;SDS011;5350;42.698;23.148;2023-07-31T06:37:35;2.88;;;2.67;;
10605;SDS011;5350;42.698;23.148;2023-07-31T06:40:05;3.35;;;2.78;;
10605;SDS011;5350;42.698;23.148;2023-07-31T06:42:33;3.20;;;2.90;;
10605;SDS011;5350;42.698;23.148;2023-07-31T06:45:01;3.78;;;2.72;;
10605;SDS011;5350;42.698;23.148;2023-07-31T06:47:29;3.00;;;2.25;;
10605;SDS011;5350;42.698;23.148;2023-07-31T06:49:58;5.35;;;2.10;;
10605;SDS011;5350;42.698;23.148;2023-07-31T06:52:25;2.45;;;2.25;;
10605;SDS011;5350;42.698;23.148;2023-07-31T06:55:00;2.70;;;1.90;;
10605;SDS011;5350;42.698;23.148;2023-07-31T06:57:28;2.15;;;1.95;;
10605;SDS011;5350;42.698;23.148;2023-07-31T06:59:55;2.40;;;2.20;;
10605;SDS011;5350;42.698;23.148;2023-07-31T07:02:21;3.38;;;2.40;;
10605;SDS011;5350;42.698;23.148;2023-07-31T07:04:48;2.30;;;1.80;;
10605;SDS011;5350;42.698;23.148;2023-07-31T07:07:17;2.00;;;1.80;;
10605;SDS011;5350;42.698;23.148;2023-07-31T07:09:44;1.85;;;1.70;;
10605;SDS011;5350;42.698;23.148;2023-07-31T07:12:11;2.08;;;1.98;;
10605;SDS011;5350;42.698;23.148;2023-07-31T07:14:37;2.40;;;2.20;;
10605;SDS011;5350;42.698;23.148;2023-07-31T07:17:04;2.10;;;1.90;;
10605;SDS011;5350;42.698;23.148;2023-07-31T07:19:31;1.60;;;1.50;;
10605;SDS011;5350;42.698;23.148;2023-07-31T07:21:58;1.75;;;1.65;;
10605;SDS011;5350;42.698;23.148;2023-07-31T07:24:28;1.65;;;1.55;;
10605;SDS011;5350;42.698;23.148;2023-07-31T07:26:55;2.03;;;1.58;;
10605;SDS011;5350;42.698;23.148;2023-07-31T07:29:21;1.90;;;1.80;;
10605;SDS011;5350;42.698;23.148;2023-07-31T07:31:48;4.10;;;1.67;;
10605;SDS011;5350;42.698;23.148;2023-07-31T07:34:15;1.85;;;1.75;;
10605;SDS011;5350;42.698;23.148;2023-07-31T07:36:41;2.00;;;1.80;;
10605;SDS011;5350;42.698;23.148;2023-07-31T07:39:09;1.70;;;1.60;;
10605;SDS011;5350;42.698;23.148;2023-07-31T07:41:38;1.92;;;1.83;;
10605;SDS011;5350;42.698;23.148;2023-07-31T07:44:04;2.05;;;1.95;;
10605;SDS011;5350;42.698;23.148;2023-07-31T07:46:31;1.98;;;1.88;;
10605;SDS011;5350;42.698;23.148;2023-07-31T07:48:58;1.65;;;1.55;;
10605;SDS011;5350;42.698;23.148;2023-07-31T07:51:24;1.98;;;1.88;;
10605;SDS011;5350;42.698;23.148;2023-07-31T07:53:51;2.92;;;2.28;;
10605;SDS011;5350;42.698;23.148;2023-07-31T07:56:18;1.85;;;1.75;;
10605;SDS011;5350;42.698;23.148;2023-07-31T07:58:49;2.30;;;2.10;;
10605;SDS011;5350;42.698;23.148;2023-07-31T08:01:16;1.67;;;1.58;;
10605;SDS011;5350;42.698;23.148;2023-07-31T08:03:43;2.03;;;1.92;;
10605;SDS011;5350;42.698;23.148;2023-07-31T08:06:09;1.90;;;1.80;;
10605;SDS011;5350;42.698;23.148;2023-07-31T08:08:36;2.00;;;1.83;;
10605;SDS011;5350;42.698;23.148;2023-07-31T08:11:04;3.22;;;1.80;;
10605;SDS011;5350;42.698;23.148;2023-07-31T08:13:30;1.90;;;1.80;;
10605;SDS011;5350;42.698;23.148;2023-07-31T08:15:59;1.80;;;1.70;;
10605;SDS011;5350;42.698;23.148;2023-07-31T08:18:25;2.53;;;1.73;;
10605;SDS011;5350;42.698;23.148;2023-07-31T08:20:52;1.90;;;1.80;;
10605;SDS011;5350;42.698;23.148;2023-07-31T08:23:19;2.45;;;1.50;;
10605;SDS011;5350;42.698;23.148;2023-07-31T08:25:45;2.08;;;1.98;;
10605;SDS011;5350;42.698;23.148;2023-07-31T08:28:14;1.60;;;1.50;;
10605;SDS011;5350;42.698;23.148;2023-07-31T08:30:41;2.20;;;1.65;;
10605;SDS011;5350;42.698;23.148;2023-07-31T08:33:09;2.42;;;1.50;;
10605;SDS011;5350;42.698;23.148;2023-07-31T08:35:36;1.88;;;1.40;;
10605;SDS011;5350;42.698;23.148;2023-07-31T08:38:03;1.75;;;1.65;;
10605;SDS011;5350;42.698;23.148;2023-07-31T08:40:30;1.75;;;1.65;;
10605;SDS011;5350;42.698;23.148;2023-07-31T08:42:56;1.15;;;1.15;;
10605;SDS011;5350;42.698;23.148;2023-07-31T08:45:27;2.20;;;1.52;;
10605;SDS011;5350;42.698;23.148;2023-07-31T08:47:54;1.27;;;1.27;;
10605;SDS011;5350;42.698;23.148;2023-07-31T08:50:23;1.92;;;1.80;;
10605;SDS011;5350;42.698;23.148;2023-07-31T08:52:51;1.75;;;1.65;;
10605;SDS011;5350;42.698;23.148;2023-07-31T08:55:18;1.65;;;1.55;;
10605;SDS011;5350;42.698;23.148;2023-07-31T08:57:48;1.70;;;1.60;;
10605;SDS011;5350;42.698;23.148;2023-07-31T09:00:17;1.75;;;1.63;;
10605;SDS011;5350;42.698;23.148;2023-07-31T09:02:45;1.92;;;1.83;;
10605;SDS011;5350;42.698;23.148;2023-07-31T09:05:18;1.90;;;1.67;;
10605;SDS011;5350;42.698;23.148;2023-07-31T09:07:47;1.67;;;1.58;;
10605;SDS011;5350;42.698;23.148;2023-07-31T09:10:15;5.30;;;1.85;;
10605;SDS011;5350;42.698;23.148;2023-07-31T09:12:42;1.65;;;1.55;;
10605;SDS011;5350;42.698;23.148;2023-07-31T09:15:09;3.83;;;1.70;;
10605;SDS011;5350;42.698;23.148;2023-07-31T09:17:37;2.08;;;1.65;;
10605;SDS011;5350;42.698;23.148;2023-07-31T09:20:13;1.63;;;1.52;;
10605;SDS011;5350;42.698;23.148;2023-07-31T09:22:42;2.10;;;2.00;;
10605;SDS011;5350;42.698;23.148;2023-07-31T09:25:16;3.22;;;1.60;;
10605;SDS011;5350;42.698;23.148;2023-07-31T09:27:47;1.80;;;1.70;;
10605;SDS011;5350;42.698;23.148;2023-07-31T09:30:15;1.75;;;1.65;;
10605;SDS011;5350;42.698;23.148;2023-07-31T09:32:43;2.83;;;1.70;;
10605;SDS011;5350;42.698;23.148;2023-07-31T09:35:16;1.95;;;1.80;;
10605;SDS011;5350;42.698;23.148;2023-07-31T09:37:48;1.50;;;1.40;;
10605;SDS011;5350;42.698;23.148;2023-07-31T09:40:25;2.42;;;1.70;;
10605;SDS011;5350;42.698;23.148;2023-07-31T09:42:53;1.45;;;1.35;;
10605;SDS011;5350;42.698;23.148;2023-07-31T09:45:22;1.70;;;1.60;;
10605;SDS011;5350;42.698;23.148;2023-07-31T09:47:49;1.80;;;1.70;;
10605;SDS011;5350;42.698;23.148;2023-07-31T09:50:16;1.55;;;1.45;;
10605;SDS011;5350;42.698;23.148;2023-07-31T09:52:43;1.60;;;1.50;;
10605;SDS011;5350;42.698;23.148;2023-07-31T09:55:10;1.77;;;1.27;;
10605;SDS011;5350;42.698;23.148;2023-07-31T09:57:39;1.98;;;1.50;;
10605;SDS011;5350;42.698;23.148;2023-07-31T10:00:08;1.50;;;1.33;;
10605;SDS011;5350;42.698;23.148;2023-07-31T10:02:36;1.98;;;1.30;;
10605;SDS011;5350;42.698;23.148;2023-07-31T10:05:04;1.60;;;1.45;;
10605;SDS011;5350;42.698;23.148;2023-07-31T10:07:33;1.95;;;1.55;;
10605;SDS011;5350;42.698;23.148;2023-07-31T10:10:03;1.17;;;1.17;;
10605;SDS011;5350;42.698;23.148;2023-07-31T10:12:31;1.50;;;1.40;;
10605;SDS011;5350;42.698;23.148;2023-07-31T10:15:01;2.17;;;1.38;;
10605;SDS011;5350;42.698;23.148;2023-07-31T10:17:29;1.50;;;1.40;;
10605;SDS011;5350;42.698;23.148;2023-07-31T10:19:56;1.40;;;1.30;;
10605;SDS011;5350;42.698;23.148;2023-07-31T10:22:26;3.03;;;1.70;;
10605;SDS011;5350;42.698;23.148;2023-07-31T10:24:54;1.60;;;1.45;;
10605;SDS011;5350;42.698;23.148;2023-07-31T10:27:23;1.45;;;1.35;;
10605;SDS011;5350;42.698;23.148;2023-07-31T10:29:50;1.15;;;1.15;;
10605;SDS011;5350;42.698;23.148;2023-07-31T10:32:20;1.20;;;1.20;;
10605;SDS011;5350;42.698;23.148;2023-07-31T10:34:49;1.38;;;1.20;;
10605;SDS011;5350;42.698;23.148;2023-07-31T10:37:21;1.27;;;1.17;;
10605;SDS011;5350;42.698;23.148;2023-07-31T10:39:58;1.88;;;1.20;;
10605;SDS011;5350;42.698;23.148;2023-07-31T10:42:27;1.52;;;1.42;;
10605;SDS011;5350;42.698;23.148;2023-07-31T10:44:59;1.65;;;1.13;;
10605;SDS011;5350;42.698;23.148;2023-07-31T10:47:28;2.55;;;1.38;;
10605;SDS011;5350;42.698;23.148;2023-07-31T10:50:10;1.65;;;1.10;;
10605;SDS011;5350;42.698;23.148;2023-07-31T10:52:38;1.30;;;1.23;;
10605;SDS011;5350;42.698;23.148;2023-07-31T10:55:23;1.08;;;1.08;;
10605;SDS011;5350;42.698;23.148;2023-07-31T10:57:52;1.08;;;1.08;;
10605;SDS011;5350;42.698;23.148;2023-07-31T11:00:20;1.20;;;1.20;;
10605;SDS011;5350;42.698;23.148;2023-07-31T11:02:59;1.92;;;1.40;;
10605;SDS011;5350;42.698;23.148;2023-07-31T11:05:43;1.45;;;1.35;;
10605;SDS011;5350;42.698;23.148;2023-07-31T11:08:12;1.95;;;1.42;;
10605;SDS011;5350;42.698;23.148;2023-07-31T11:10:40;1.52;;;1.40;;
10605;SDS011;5350;42.698;23.148;2023-07-31T11:13:07;1.30;;;1.20;;
10605;SDS011;5350;42.698;23.148;2023-07-31T11:15:34;1.40;;;1.30;;
10605;SDS011;5350;42.698;23.148;2023-07-31T11:18:02;1.60;;;1.50;;
10605;SDS011;5350;42.698;23.148;2023-07-31T11:20:30;1.80;;;1.70;;
10605;SDS011;5350;42.698;23.148;2023-07-31T11:22:58;2.00;;;1.90;;
10605;SDS011;5350;42.698;23.148;2023-07-31T11:25:26;3.75;;;2.38;;
10605;SDS011;5350;42.698;23.148;2023-07-31T11:27:55;2.90;;;2.70;;
10605;SDS011;5350;42.698;23.148;2023-07-31T11:30:22;2.55;;;2.30;;
10605;SDS011;5350;42.698;23.148;2023-07-31T11:32:49;2.10;;;2.00;;
10605;SDS011;5350;42.698;23.148;2023-07-31T11:35:17;2.42;;;2.30;;
10605;SDS011;5350;42.698;23.148;2023-07-31T11:37:44;2.40;;;2.30;;
10605;SDS011;5350;42.698;23.148;2023-07-31T11:40:11;3.20;;;3.00;;
10605;SDS011;5350;42.698;23.148;2023-07-31T11:42:38;3.40;;;3.13;;
10605;SDS011;5350;42.698;23.148;2023-07-31T11:45:05;3.67;;;3.38;;
10605;SDS011;5350;42.698;23.148;2023-07-31T11:47:33;3.10;;;2.90;;
10605;SDS011;5350;42.698;23.148;2023-07-31T11:50:01;3.60;;;3.30;;
10605;SDS011;5350;42.698;23.148;2023-07-31T11:52:31;3.50;;;3.30;;
10605;SDS011;5350;42.698;23.148;2023-07-31T11:55:01;4.10;;;3.80;;
10605;SDS011;5350;42.698;23.148;2023-07-31T11:57:29;4.05;;;3.80;;
10605;SDS011;5350;42.698;23.148;2023-07-31T11:59:56;4.70;;;3.95;;
10605;SDS011;5350;42.698;23.148;2023-07-31T12:02:23;4.53;;;4.10;;
10605;SDS011;5350;42.698;23.148;2023-07-31T12:04:50;5.30;;;4.90;;
10605;SDS011;5350;42.698;23.148;2023-07-31T12:07:17;6.20;;;5.68;;
10605;SDS011;5350;42.698;23.148;2023-07-31T12:09:52;5.70;;;5.22;;
10605;SDS011;5350;42.698;23.148;2023-07-31T12:12:20;6.05;;;5.65;;
10605;SDS011;5350;42.698;23.148;2023-07-31T12:14:47;5.53;;;5.00;;
10605;SDS011;5350;42.698;23.148;2023-07-31T12:17:16;5.15;;;4.72;;
10605;SDS011;5350;42.698;23.148;2023-07-31T12:19:45;5.32;;;5.00;;
10605;SDS011;5350;42.698;23.148;2023-07-31T12:22:11;5.10;;;4.70;;
10605;SDS011;5350;42.698;23.148;2023-07-31T12:24:39;5.00;;;4.60;;
10605;SDS011;5350;42.698;23.148;2023-07-31T12:27:10;5.05;;;4.65;;
10605;SDS011;5350;42.698;23.148;2023-07-31T12:29:37;5.65;;;5.25;;
10605;SDS011;5350;42.698;23.148;2023-07-31T12:32:04;5.80;;;5.30;;
10605;SDS011;5350;42.698;23.148;2023-07-31T12:34:44;6.15;;;5.75;;
10605;SDS011;5350;42.698;23.148;2023-07-31T12:37:10;5.78;;;5.38;;
10605;SDS011;5350;42.698;23.148;2023-07-31T12:39:37;6.00;;;5.40;;
10605;SDS011;5350;42.698;23.148;2023-07-31T12:42:04;5.78;;;5.32;;
10605;SDS011;5350;42.698;23.148;2023-07-31T12:44:33;5.78;;;5.38;;
10605;SDS011;5350;42.698;23.148;2023-07-31T12:47:00;6.10;;;5.60;;
10605;SDS011;5350;42.698;23.148;2023-07-31T12:49:26;5.65;;;5.15;;
10605;SDS011;5350;42.698;23.148;2023-07-31T12:51:53;6.30;;;5.80;;
10605;SDS011;5350;42.698;23.148;2023-07-31T12:54:20;6.07;;;5.68;;
10605;SDS011;5350;42.698;23.148;2023-07-31T12:56:46;6.15;;;5.60;;
10605;SDS011;5350;42.698;23.148;2023-07-31T12:59:14;5.25;;;4.85;;
10605;SDS011;5350;42.698;23.148;2023-07-31T13:01:42;5.70;;;5.30;;
10605;SDS011;5350;42.698;23.148;2023-07-31T13:04:08;6.25;;;5.75;;
10605;SDS011;5350;42.698;23.148;2023-07-31T13:06:35;5.07;;;4.78;;
10605;SDS011;5350;42.698;23.148;2023-07-31T13:09:02;5.20;;;4.90;;
10605;SDS011;5350;42.698;23.148;2023-07-31T13:11:29;4.97;;;4.68;;
10605;SDS011;5350;42.698;23.148;2023-07-31T13:13:56;5.35;;;4.90;;
10605;SDS011;5350;42.698;23.148;2023-07-31T13:16:22;4.53;;;4.18;;
10605;SDS011;5350;42.698;23.148;2023-07-31T13:18:50;4.68;;;4.28;;
10605;SDS011;5350;42.698;23.148;2023-07-31T13:21:18;4.32;;;4.03;;
10605;SDS011;5350;42.698;23.148;2023-07-31T13:23:46;3.45;;;3.15;;
10605;SDS011;5350;42.698;23.148;2023-07-31T13:26:13;4.43;;;4.00;;
10605;SDS011;5350;42.698;23.148;2023-07-31T13:28:40;4.20;;;3.90;;
10605;SDS011;5350;42.698;23.148;2023-07-31T13:31:07;4.30;;;3.90;;
10605;SDS011;5350;42.698;23.148;2023-07-31T13:33:33;3.60;;;3.30;;
10605;SDS011;5350;42.698;23.148;2023-07-31T13:36:01;3.80;;;3.60;;
10605;SDS011;5350;42.698;23.148;2023-07-31T13:38:28;3.88;;;3.40;;
10605;SDS011;5350;42.698;23.148;2023-07-31T13:40:55;3.83;;;3.47;;
10605;SDS011;5350;42.698;23.148;2023-07-31T13:43:23;3.55;;;2.80;;
10605;SDS011;5350;42.698;23.148;2023-07-31T13:45:49;2.85;;;2.65;;
10605;SDS011;5350;42.698;23.148;2023-07-31T13:48:19;3.33;;;3.13;;
10605;SDS011;5350;42.698;23.148;2023-07-31T13:50:46;5.50;;;2.92;;
10605;SDS011;5350;42.698;23.148;2023-07-31T13:53:14;3.15;;;2.85;;
10605;SDS011;5350;42.698;23.148;2023-07-31T13:55:41;4.43;;;2.88;;
10605;SDS011;5350;42.698;23.148;2023-07-31T13:58:10;2.70;;;2.50;;
10605;SDS011;5350;42.698;23.148;2023-07-31T14:00:37;2.78;;;2.65;;
10605;SDS011;5350;42.698;23.148;2023-07-31T14:03:03;2.83;;;2.60;;
10605;SDS011;5350;42.698;23.148;2023-07-31T14:05:30;2.85;;;2.65;;
10605;SDS011;5350;42.698;23.148;2023-07-31T14:07:57;2.92;;;2.72;;
10605;SDS011;5350;42.698;23.148;2023-07-31T14:10:25;3.20;;;3.00;;
10605;SDS011;5350;42.698;23.148;2023-07-31T14:12:52;3.38;;;3.08;;
10605;SDS011;5350;42.698;23.148;2023-07-31T14:15:18;2.90;;;2.70;;
10605;SDS011;5350;42.698;23.148;2023-07-31T14:17:45;3.33;;;3.13;;
10605;SDS011;5350;42.698;23.148;2023-07-31T14:20:12;3.00;;;2.80;;
10605;SDS011;5350;42.698;23.148;2023-07-31T14:22:38;3.10;;;2.78;;
10605;SDS011;5350;42.698;23.148;2023-07-31T14:25:05;2.65;;;2.45;;
10605;SDS011;5350;42.698;23.148;2023-07-31T14:27:36;3.40;;;3.10;;
10605;SDS011;5350;42.698;23.148;2023-07-31T14:30:03;2.58;;;2.38;;
10605;SDS011;5350;42.698;23.148;2023-07-31T14:32:31;2.47;;;2.38;;
10605;SDS011;5350;42.698;23.148;2023-07-31T14:34:58;2.65;;;2.45;;
10605;SDS011;5350;42.698;23.148;2023-07-31T14:37:25;3.00;;;2.75;;
10605;SDS011;5350;42.698;23.148;2023-07-31T14:39:53;2.83;;;2.67;;
10605;SDS011;5350;42.698;23.148;2023-07-31T14:42:21;2.88;;;2.67;;
10605;SDS011;5350;42.698;23.148;2023-07-31T14:44:49;3.22;;;2.65;;
10605;SDS011;5350;42.698;23.148;2023-07-31T14:47:16;2.35;;;2.25;;
10605;SDS011;5350;42.698;23.148;2023-07-31T14:49:42;4.60;;;2.65;;